Flight Track Log - Related Links

Times and Time Zones

All times are in EDT time to prevent confusion due to time zone crossing. See the N6245S flight status page for this flight to view local times or setup timezone preferences in your user account.

Time Position Orientation Groundspeed Altitude Reporting Facility
EDT Latitude Longitude Course Direction KTS MPH feet Rate Location/Type
Sun 07:59:09 PM 31.3575 -92.3800 53° Northeast 99 114 1,900  Level Houston Center
Sun 07:59:57 PM 31.3708 -92.3594 53° Northeast 102 117 2,500 667 Climbing Houston Center
Sun 08:00:57 PM 31.3833 -92.3289 64° Northeast 100 115 3,100 532 Climbing Houston Center
Sun 08:01:16 PM 31.3864 -92.3250 47° Northeast 101 116 3,200 590 Climbing Houston Center
Sun 08:01:58 PM 31.3958 -92.2983 67° East 100 115 3,700 667 Climbing Houston Center
Sun 08:02:19 PM 31.3978 -92.2944 60° Northeast 101 116 3,900 787 Climbing Houston Center
Sun 08:02:59 PM 31.4067 -92.2706 66° East 104 120 4,500 774 Climbing Houston Center
Sun 08:03:21 PM 31.4125 -92.2567 64° Northeast 102 117 4,700 600 Climbing Houston Center
Sun 08:03:59 PM 31.4231 -92.2372 58° Northeast 114 131 5,100 581 Climbing Houston Center
Sun 08:04:23 PM 31.4300 -92.2256 55° Northeast 109 125 5,300 393 Climbing Houston Center
Sun 08:05:00 PM 31.4467 -92.2131 33° Northeast 118 136 5,500 290 Climbing Houston Center
Sun 08:05:25 PM 31.4594 -92.2061 25° Northeast 119 137 5,600 90 Climbing Houston Center
Sun 08:06:07 PM 31.4847 -92.1900 29° Northeast 142 163 5,600 -97 Level Houston Center
Sun 08:06:27 PM 31.4939 -92.1836 31° Northeast 137 158 5,500 -100 Descending Houston Center
Sun 08:07:07 PM 31.5139 -92.1556 50° Northeast 144 166 5,500  Level Houston Center
Sun 08:07:29 PM 31.5197 -92.1481 48° Northeast 139 160 5,500  Level Houston Center
Sun 08:08:08 PM 31.5386 -92.1189 53° Northeast 141 162 5,500 97 Level Houston Center
Sun 08:08:31 PM 31.5431 -92.1114 55° Northeast 140 161 5,600  Climbing Houston Center
Sun 08:09:08 PM 31.5656 -92.0844 46° Northeast 143 165 5,500 97 Descending Houston Center
Sun 08:09:33 PM 31.5708 -92.0675 70° East 140 161 5,700 98 Climbing Houston Center
Sun 08:10:09 PM 31.5706 -92.0400 91° East 141 162 5,600  Descending Houston Center
Sun 08:10:35 PM 31.5747 -92.0222 75° East 141 162 5,700  Climbing Houston Center
Sun 08:11:10 PM 31.5844 -91.9969 66° East 140 161 5,600  Descending Houston Center
Sun 08:11:38 PM 31.5944 -91.9822 51° Northeast 141 162 5,700 67 Climbing Houston Center
Sun 08:12:40 PM 31.6192 -91.9419 54° Northeast 146 168 5,700  Level Houston Center
Sun 08:13:42 PM 31.6397 -91.8992 61° Northeast 147 169 5,700  Level Houston Center
Sun 08:14:44 PM 31.6586 -91.8558 63° Northeast 147 169 5,700 -48 Level Houston Center
Sun 08:15:46 PM 31.6808 -91.8031 64° Northeast 147 169 5,600  Descending Houston Center
Sun 08:16:48 PM 31.7003 -91.7597 62° Northeast 148 170 5,700  Climbing Houston Center
Sun 08:17:50 PM 31.7206 -91.7169 61° Northeast 148 170 5,600 -48 Descending Houston Center
Sun 08:18:52 PM 31.7411 -91.6744 60° Northeast 148 170 5,600 48 Level Houston Center
Sun 08:19:54 PM 31.7603 -91.6342 61° Northeast 147 169 5,700  Climbing Houston Center
Sun 08:20:56 PM 31.7831 -91.5850 61° Northeast 145 167 5,600 -48 Descending Houston Center
Sun 08:21:59 PM 31.8008 -91.5433 63° Northeast 145 167 5,600  Level Houston Center
Sun 08:23:01 PM 31.8192 -91.5017 63° Northeast 145 167 5,600  Level Houston Center
Sun 08:24:03 PM 31.8389 -91.4608 60° Northeast 145 167 5,600  Level Houston Center
Sun 08:25:05 PM 31.8592 -91.4200 60° Northeast 145 167 5,600  Level Houston Center
Sun 08:26:07 PM 31.8792 -91.3789 60° Northeast 145 167 5,600 -65 Level Houston Center
Sun 08:26:37 PM 31.8894 -91.3494 68° East 142 163 5,500 -66 Descending Memphis Center
Sun 08:27:38 PM 31.9092 -91.3086 60° Northeast 142 163 5,500  Level Memphis Center
Sun 08:28:40 PM 31.9272 -91.2661 63° Northeast 142 163 5,500  Level Memphis Center
Sun 08:29:42 PM 31.9461 -91.2236 62° Northeast 143 165 5,500  Level Memphis Center
Sun 08:30:43 PM 31.9656 -91.1811 62° Northeast 145 167 5,500 38 Level Memphis Center
Sun 08:32:19 PM 31.9967 -91.1131 62° Northeast 146 168 5,600 32 Climbing Houston Center
Sun 08:33:48 PM 32.0283 -91.0400 63° Northeast 150 173 5,600  Level Memphis Center
Sun 08:34:50 PM 32.0467 -90.9961 64° Northeast 152 175 5,600  Level Memphis Center
Sun 08:35:51 PM 32.0669 -90.9519 62° Northeast 152 175 5,600  Level Memphis Center
Sun 08:36:53 PM 32.0889 -90.9081 59° Northeast 152 175 5,600  Level Memphis Center
Sun 08:37:55 PM 32.1064 -90.8636 65° Northeast 152 175 5,600  Level Memphis Center
Sun 08:38:56 PM 32.1303 -90.8117 61° Northeast 152 175 5,600  Level Memphis Center
Sun 08:39:58 PM 32.1503 -90.7683 61° Northeast 152 175 5,600  Level Memphis Center
Sun 08:40:59 PM 32.1689 -90.7247 63° Northeast 152 175 5,600  Level Memphis Center
Sun 08:42:01 PM 32.1894 -90.6822 60° Northeast 152 175 5,600  Level Memphis Center
Sun 08:43:02 PM 32.2081 -90.6378 64° Northeast 152 175 5,600 -146 Level Memphis Center
Sun 08:44:04 PM 32.2242 -90.5925 67° East 152 175 5,300 -375 Descending Memphis Center
Sun 08:44:54 PM 32.2458 -90.5444 62° Northeast 163 188 4,900 -581 Descending Memphis Center
Sun 08:45:06 PM 32.2500 -90.5369 57° Northeast 156 180 4,700 -493 Descending Memphis Center
Sun 08:46:07 PM 32.2703 -90.4881 64° Northeast 161 185 4,300 -488 Descending Memphis Center
Sun 08:47:09 PM 32.2939 -90.4436 58° Northeast 161 185 3,700 -439 Descending Memphis Center
Sun 08:48:10 PM 32.3172 -90.4003 57° Northeast 161 185 3,400 -341 Descending Memphis Center
Sun 08:49:12 PM 32.3344 -90.3561 65° Northeast 155 178 3,000 -293 Descending Memphis Center
Sun 08:50:13 PM 32.3531 -90.3144 62° Northeast 152 175 2,800 -244 Descending Memphis Center
Sun 08:51:15 PM 32.3711 -90.2739 62° Northeast 132 152 2,500 -290 Descending Memphis Center

Login

Don't have an account? Register now (free) for customized features, flight alerts, and more!